sensor_id;sensor_type;location;lat;lon;timestamp;P1;durP1;ratioP1;P2;durP2;ratioP2
54575;SDS011;40472;53.486;14.542;2022-12-13T00:01:17;4.20;;;2.45;;
54575;SDS011;40472;53.486;14.542;2022-12-13T00:03:43;6.25;;;2.88;;
54575;SDS011;40472;53.486;14.542;2022-12-13T00:06:09;9.88;;;3.75;;
54575;SDS011;40472;53.486;14.542;2022-12-13T00:08:36;4.38;;;2.60;;
54575;SDS011;40472;53.486;14.542;2022-12-13T00:11:03;8.82;;;4.13;;
54575;SDS011;40472;53.486;14.542;2022-12-13T00:13:30;6.40;;;3.28;;
54575;SDS011;40472;53.486;14.542;2022-12-13T00:16:06;6.78;;;2.33;;
54575;SDS011;40472;53.486;14.542;2022-12-13T00:18:35;6.85;;;3.40;;
54575;SDS011;40472;53.486;14.542;2022-12-13T00:21:07;4.05;;;3.05;;
54575;SDS011;40472;53.486;14.542;2022-12-13T00:23:38;6.00;;;3.90;;
54575;SDS011;40472;53.486;14.542;2022-12-13T00:26:04;5.13;;;3.28;;
54575;SDS011;40472;53.486;14.542;2022-12-13T00:28:32;4.55;;;2.72;;
54575;SDS011;40472;53.486;14.542;2022-12-13T00:30:59;4.90;;;2.75;;
54575;SDS011;40472;53.486;14.542;2022-12-13T00:33:25;3.97;;;3.10;;
54575;SDS011;40472;53.486;14.542;2022-12-13T00:35:52;5.60;;;2.05;;
54575;SDS011;40472;53.486;14.542;2022-12-13T00:38:26;5.57;;;3.50;;
54575;SDS011;40472;53.486;14.542;2022-12-13T00:41:43;4.40;;;3.17;;
54575;SDS011;40472;53.486;14.542;2022-12-13T00:44:18;2.72;;;1.77;;
54575;SDS011;40472;53.486;14.542;2022-12-13T00:46:53;5.28;;;2.45;;
54575;SDS011;40472;53.486;14.542;2022-12-13T00:49:20;4.30;;;2.53;;
54575;SDS011;40472;53.486;14.542;2022-12-13T00:52:12;4.78;;;3.10;;
54575;SDS011;40472;53.486;14.542;2022-12-13T00:54:38;5.10;;;2.55;;
54575;SDS011;40472;53.486;14.542;2022-12-13T00:57:03;3.40;;;2.72;;
54575;SDS011;40472;53.486;14.542;2022-12-13T00:59:30;5.45;;;2.97;;
54575;SDS011;40472;53.486;14.542;2022-12-13T01:01:56;6.03;;;2.80;;
54575;SDS011;40472;53.486;14.542;2022-12-13T01:04:22;5.25;;;3.95;;
54575;SDS011;40472;53.486;14.542;2022-12-13T01:06:48;6.28;;;3.67;;
54575;SDS011;40472;53.486;14.542;2022-12-13T01:09:20;1.67;;;1.13;;
54575;SDS011;40472;53.486;14.542;2022-12-13T01:11:54;5.18;;;3.63;;
54575;SDS011;40472;53.486;14.542;2022-12-13T01:14:25;4.43;;;3.15;;
54575;SDS011;40472;53.486;14.542;2022-12-13T01:16:51;5.93;;;2.10;;
54575;SDS011;40472;53.486;14.542;2022-12-13T01:19:20;5.13;;;3.50;;
54575;SDS011;40472;53.486;14.542;2022-12-13T01:21:47;4.63;;;2.85;;
54575;SDS011;40472;53.486;14.542;2022-12-13T01:24:12;4.30;;;2.35;;
54575;SDS011;40472;53.486;14.542;2022-12-13T01:26:39;3.80;;;2.15;;
54575;SDS011;40472;53.486;14.542;2022-12-13T01:29:05;3.80;;;2.65;;
54575;SDS011;40472;53.486;14.542;2022-12-13T01:31:33;4.13;;;2.15;;
54575;SDS011;40472;53.486;14.542;2022-12-13T01:33:59;6.70;;;3.38;;
54575;SDS011;40472;53.486;14.542;2022-12-13T01:36:34;4.65;;;2.78;;
54575;SDS011;40472;53.486;14.542;2022-12-13T01:39:02;3.40;;;2.53;;
54575;SDS011;40472;53.486;14.542;2022-12-13T01:41:30;4.32;;;2.33;;
54575;SDS011;40472;53.486;14.542;2022-12-13T01:43:59;3.53;;;1.98;;
54575;SDS011;40472;53.486;14.542;2022-12-13T01:46:31;2.63;;;1.88;;
54575;SDS011;40472;53.486;14.542;2022-12-13T01:49:12;1.90;;;1.63;;
54575;SDS011;40472;53.486;14.542;2022-12-13T01:54:16;2.90;;;2.00;;
54575;SDS011;40472;53.486;14.542;2022-12-13T01:56:50;2.90;;;2.22;;
54575;SDS011;40472;53.486;14.542;2022-12-13T01:59:19;3.70;;;2.28;;
54575;SDS011;40472;53.486;14.542;2022-12-13T02:01:46;4.40;;;2.50;;
54575;SDS011;40472;53.486;14.542;2022-12-13T02:04:14;4.05;;;1.55;;
54575;SDS011;40472;53.486;14.542;2022-12-13T02:06:44;3.10;;;1.88;;
54575;SDS011;40472;53.486;14.542;2022-12-13T02:09:11;3.88;;;1.95;;
54575;SDS011;40472;53.486;14.542;2022-12-13T02:11:38;5.30;;;2.17;;
54575;SDS011;40472;53.486;14.542;2022-12-13T02:14:06;1.95;;;1.42;;
54575;SDS011;40472;53.486;14.542;2022-12-13T02:16:45;3.25;;;2.08;;
54575;SDS011;40472;53.486;14.542;2022-12-13T02:31:01;2.83;;;1.60;;
54575;SDS011;40472;53.486;14.542;2022-12-13T02:33:48;3.10;;;2.03;;
54575;SDS011;40472;53.486;14.542;2022-12-13T02:39:18;7.28;;;2.33;;
54575;SDS011;40472;53.486;14.542;2022-12-13T02:41:54;1.88;;;1.30;;
54575;SDS011;40472;53.486;14.542;2022-12-13T02:44:28;2.72;;;1.60;;
54575;SDS011;40472;53.486;14.542;2022-12-13T02:47:16;3.83;;;2.13;;
54575;SDS011;40472;53.486;14.542;2022-12-13T02:49:54;2.53;;;1.88;;
54575;SDS011;40472;53.486;14.542;2022-12-13T02:52:27;2.38;;;1.98;;
54575;SDS011;40472;53.486;14.542;2022-12-13T02:54:55;1.77;;;1.45;;
54575;SDS011;40472;53.486;14.542;2022-12-13T02:57:35;4.32;;;1.92;;
54575;SDS011;40472;53.486;14.542;2022-12-13T03:00:04;2.88;;;1.60;;
54575;SDS011;40472;53.486;14.542;2022-12-13T03:05:39;1.92;;;1.65;;
54575;SDS011;40472;53.486;14.542;2022-12-13T03:11:19;3.50;;;1.88;;
54575;SDS011;40472;53.486;14.542;2022-12-13T03:13:48;5.00;;;1.25;;
54575;SDS011;40472;53.486;14.542;2022-12-13T03:18:47;1.65;;;1.48;;
54575;SDS011;40472;53.486;14.542;2022-12-13T03:21:14;2.70;;;1.67;;
54575;SDS011;40472;53.486;14.542;2022-12-13T03:23:40;1.70;;;1.58;;
54575;SDS011;40472;53.486;14.542;2022-12-13T03:28:31;3.08;;;1.95;;
54575;SDS011;40472;53.486;14.542;2022-12-13T03:30:57;1.20;;;1.00;;
54575;SDS011;40472;53.486;14.542;2022-12-13T03:33:22;2.08;;;1.52;;
54575;SDS011;40472;53.486;14.542;2022-12-13T03:35:48;3.80;;;1.58;;
54575;SDS011;40472;53.486;14.542;2022-12-13T03:38:15;2.17;;;1.52;;
54575;SDS011;40472;53.486;14.542;2022-12-13T03:40:42;2.88;;;2.20;;
54575;SDS011;40472;53.486;14.542;2022-12-13T03:43:08;2.13;;;1.85;;
54575;SDS011;40472;53.486;14.542;2022-12-13T03:45:33;2.45;;;1.40;;
54575;SDS011;40472;53.486;14.542;2022-12-13T03:47:59;3.28;;;2.03;;
54575;SDS011;40472;53.486;14.542;2022-12-13T03:50:25;4.32;;;2.50;;
54575;SDS011;40472;53.486;14.542;2022-12-13T03:52:56;2.97;;;1.85;;
54575;SDS011;40472;53.486;14.542;2022-12-13T03:55:23;3.63;;;1.95;;
54575;SDS011;40472;53.486;14.542;2022-12-13T03:57:49;1.90;;;1.33;;
54575;SDS011;40472;53.486;14.542;2022-12-13T04:00:15;5.63;;;2.30;;
54575;SDS011;40472;53.486;14.542;2022-12-13T04:02:41;2.60;;;1.92;;
54575;SDS011;40472;53.486;14.542;2022-12-13T04:05:06;2.40;;;1.83;;
54575;SDS011;40472;53.486;14.542;2022-12-13T04:07:32;4.38;;;1.50;;
54575;SDS011;40472;53.486;14.542;2022-12-13T04:09:58;1.98;;;1.52;;
54575;SDS011;40472;53.486;14.542;2022-12-13T04:12:23;5.22;;;2.28;;
54575;SDS011;40472;53.486;14.542;2022-12-13T04:15:08;1.27;;;1.00;;
54575;SDS011;40472;53.486;14.542;2022-12-13T04:17:35;4.10;;;2.75;;
54575;SDS011;40472;53.486;14.542;2022-12-13T04:20:01;3.55;;;2.30;;
54575;SDS011;40472;53.486;14.542;2022-12-13T04:22:26;4.32;;;1.88;;
54575;SDS011;40472;53.486;14.542;2022-12-13T04:24:52;1.80;;;1.42;;
54575;SDS011;40472;53.486;14.542;2022-12-13T04:27:18;4.07;;;2.05;;
54575;SDS011;40472;53.486;14.542;2022-12-13T04:29:43;2.22;;;1.50;;
54575;SDS011;40472;53.486;14.542;2022-12-13T04:32:09;2.65;;;1.83;;
54575;SDS011;40472;53.486;14.542;2022-12-13T04:34:35;2.72;;;2.03;;
54575;SDS011;40472;53.486;14.542;2022-12-13T04:37:00;2.03;;;1.38;;
54575;SDS011;40472;53.486;14.542;2022-12-13T04:39:26;3.17;;;2.05;;
54575;SDS011;40472;53.486;14.542;2022-12-13T04:41:53;1.88;;;1.60;;
54575;SDS011;40472;53.486;14.542;2022-12-13T04:44:19;2.88;;;1.95;;
54575;SDS011;40472;53.486;14.542;2022-12-13T04:46:44;2.28;;;1.38;;
54575;SDS011;40472;53.486;14.542;2022-12-13T04:49:10;3.75;;;1.88;;
54575;SDS011;40472;53.486;14.542;2022-12-13T04:51:36;5.50;;;2.45;;
54575;SDS011;40472;53.486;14.542;2022-12-13T04:54:01;1.63;;;1.23;;
54575;SDS011;40472;53.486;14.542;2022-12-13T04:56:27;4.93;;;1.90;;
54575;SDS011;40472;53.486;14.542;2022-12-13T04:58:53;4.93;;;2.10;;
54575;SDS011;40472;53.486;14.542;2022-12-13T05:01:19;5.03;;;1.60;;
54575;SDS011;40472;53.486;14.542;2022-12-13T05:03:44;5.40;;;1.80;;
54575;SDS011;40472;53.486;14.542;2022-12-13T05:06:12;2.78;;;1.67;;
54575;SDS011;40472;53.486;14.542;2022-12-13T05:08:38;3.78;;;2.00;;
54575;SDS011;40472;53.486;14.542;2022-12-13T05:11:05;2.78;;;1.73;;
54575;SDS011;40472;53.486;14.542;2022-12-13T05:13:32;3.95;;;2.42;;
54575;SDS011;40472;53.486;14.542;2022-12-13T05:16:02;3.50;;;2.33;;
54575;SDS011;40472;53.486;14.542;2022-12-13T05:18:30;6.22;;;2.20;;
54575;SDS011;40472;53.486;14.542;2022-12-13T05:21:00;4.40;;;2.63;;
54575;SDS011;40472;53.486;14.542;2022-12-13T05:23:26;5.53;;;1.90;;
54575;SDS011;40472;53.486;14.542;2022-12-13T05:25:52;3.97;;;2.38;;
54575;SDS011;40472;53.486;14.542;2022-12-13T05:28:18;5.10;;;2.40;;
54575;SDS011;40472;53.486;14.542;2022-12-13T05:30:44;2.00;;;1.58;;
54575;SDS011;40472;53.486;14.542;2022-12-13T05:33:10;2.17;;;1.63;;
54575;SDS011;40472;53.486;14.542;2022-12-13T05:35:36;2.88;;;1.63;;
54575;SDS011;40472;53.486;14.542;2022-12-13T05:38:02;3.38;;;2.42;;
54575;SDS011;40472;53.486;14.542;2022-12-13T05:40:29;2.42;;;1.67;;
54575;SDS011;40472;53.486;14.542;2022-12-13T05:42:57;4.00;;;1.92;;
54575;SDS011;40472;53.486;14.542;2022-12-13T05:45:23;3.20;;;1.73;;
54575;SDS011;40472;53.486;14.542;2022-12-13T05:47:49;1.55;;;1.00;;
54575;SDS011;40472;53.486;14.542;2022-12-13T05:50:15;2.53;;;1.90;;
54575;SDS011;40472;53.486;14.542;2022-12-13T05:52:41;4.03;;;2.33;;
54575;SDS011;40472;53.486;14.542;2022-12-13T05:55:08;2.75;;;2.17;;
54575;SDS011;40472;53.486;14.542;2022-12-13T05:57:34;3.13;;;2.15;;
54575;SDS011;40472;53.486;14.542;2022-12-13T06:00:00;1.67;;;1.33;;
54575;SDS011;40472;53.486;14.542;2022-12-13T06:02:26;2.42;;;1.83;;
54575;SDS011;40472;53.486;14.542;2022-12-13T06:04:52;4.82;;;2.13;;
54575;SDS011;40472;53.486;14.542;2022-12-13T06:07:18;2.95;;;1.75;;
54575;SDS011;40472;53.486;14.542;2022-12-13T06:09:43;6.63;;;1.70;;
54575;SDS011;40472;53.486;14.542;2022-12-13T06:12:09;2.67;;;1.58;;
54575;SDS011;40472;53.486;14.542;2022-12-13T06:14:35;2.95;;;1.35;;
54575;SDS011;40472;53.486;14.542;2022-12-13T06:17:01;2.80;;;1.45;;
54575;SDS011;40472;53.486;14.542;2022-12-13T06:19:27;1.27;;;1.17;;
54575;SDS011;40472;53.486;14.542;2022-12-13T06:21:53;3.30;;;1.67;;
54575;SDS011;40472;53.486;14.542;2022-12-13T06:24:20;1.42;;;1.30;;
54575;SDS011;40472;53.486;14.542;2022-12-13T06:26:47;3.08;;;1.65;;
54575;SDS011;40472;53.486;14.542;2022-12-13T06:29:15;2.80;;;1.70;;
54575;SDS011;40472;53.486;14.542;2022-12-13T06:31:42;2.92;;;2.10;;
54575;SDS011;40472;53.486;14.542;2022-12-13T06:34:08;1.83;;;1.55;;
54575;SDS011;40472;53.486;14.542;2022-12-13T06:36:34;1.92;;;1.75;;
54575;SDS011;40472;53.486;14.542;2022-12-13T06:39:04;4.10;;;2.33;;
54575;SDS011;40472;53.486;14.542;2022-12-13T06:41:40;4.70;;;2.97;;
54575;SDS011;40472;53.486;14.542;2022-12-13T06:44:50;3.67;;;2.55;;
54575;SDS011;40472;53.486;14.542;2022-12-13T06:47:16;3.22;;;1.70;;
54575;SDS011;40472;53.486;14.542;2022-12-13T06:49:42;3.75;;;1.83;;
54575;SDS011;40472;53.486;14.542;2022-12-13T06:52:09;3.80;;;2.70;;
54575;SDS011;40472;53.486;14.542;2022-12-13T06:54:36;5.72;;;2.10;;
54575;SDS011;40472;53.486;14.542;2022-12-13T06:57:02;2.83;;;1.50;;
54575;SDS011;40472;53.486;14.542;2022-12-13T06:59:28;2.58;;;1.67;;
54575;SDS011;40472;53.486;14.542;2022-12-13T07:01:54;4.25;;;2.75;;
54575;SDS011;40472;53.486;14.542;2022-12-13T07:04:20;4.20;;;1.80;;
54575;SDS011;40472;53.486;14.542;2022-12-13T07:06:45;2.03;;;1.38;;
54575;SDS011;40472;53.486;14.542;2022-12-13T07:09:12;4.10;;;2.65;;
54575;SDS011;40472;53.486;14.542;2022-12-13T07:11:51;3.88;;;3.00;;
54575;SDS011;40472;53.486;14.542;2022-12-13T07:14:26;4.60;;;2.15;;
54575;SDS011;40472;53.486;14.542;2022-12-13T07:16:52;1.17;;;1.08;;
54575;SDS011;40472;53.486;14.542;2022-12-13T07:19:18;2.30;;;1.80;;
54575;SDS011;40472;53.486;14.542;2022-12-13T07:21:44;2.13;;;1.45;;
54575;SDS011;40472;53.486;14.542;2022-12-13T07:24:09;2.63;;;1.50;;
54575;SDS011;40472;53.486;14.542;2022-12-13T07:26:35;2.97;;;1.48;;
54575;SDS011;40472;53.486;14.542;2022-12-13T07:29:02;3.20;;;2.08;;
54575;SDS011;40472;53.486;14.542;2022-12-13T07:31:28;3.08;;;1.45;;
54575;SDS011;40472;53.486;14.542;2022-12-13T07:33:54;6.57;;;2.88;;
54575;SDS011;40472;53.486;14.542;2022-12-13T07:36:20;3.00;;;1.77;;
54575;SDS011;40472;53.486;14.542;2022-12-13T07:38:51;3.55;;;2.03;;
54575;SDS011;40472;53.486;14.542;2022-12-13T07:41:18;3.40;;;1.98;;
54575;SDS011;40472;53.486;14.542;2022-12-13T07:43:44;2.53;;;2.33;;
54575;SDS011;40472;53.486;14.542;2022-12-13T07:46:10;3.30;;;2.08;;
54575;SDS011;40472;53.486;14.542;2022-12-13T07:48:36;1.83;;;1.23;;
54575;SDS011;40472;53.486;14.542;2022-12-13T07:51:03;2.60;;;2.15;;
54575;SDS011;40472;53.486;14.542;2022-12-13T07:53:31;3.75;;;2.53;;
54575;SDS011;40472;53.486;14.542;2022-12-13T07:55:59;2.47;;;1.63;;
54575;SDS011;40472;53.486;14.542;2022-12-13T07:58:27;7.30;;;3.50;;
54575;SDS011;40472;53.486;14.542;2022-12-13T08:01:01;5.03;;;3.05;;
54575;SDS011;40472;53.486;14.542;2022-12-13T08:03:29;3.90;;;2.47;;
54575;SDS011;40472;53.486;14.542;2022-12-13T08:08:28;3.35;;;1.92;;
54575;SDS011;40472;53.486;14.542;2022-12-13T08:10:54;4.95;;;3.30;;
54575;SDS011;40472;53.486;14.542;2022-12-13T08:13:20;3.65;;;1.77;;
54575;SDS011;40472;53.486;14.542;2022-12-13T08:15:45;2.97;;;2.00;;
54575;SDS011;40472;53.486;14.542;2022-12-13T08:18:11;2.63;;;1.98;;
54575;SDS011;40472;53.486;14.542;2022-12-13T08:20:37;7.03;;;2.83;;
54575;SDS011;40472;53.486;14.542;2022-12-13T08:23:02;4.00;;;2.08;;
54575;SDS011;40472;53.486;14.542;2022-12-13T08:25:29;3.40;;;1.63;;
54575;SDS011;40472;53.486;14.542;2022-12-13T08:27:54;3.60;;;2.22;;
54575;SDS011;40472;53.486;14.542;2022-12-13T08:30:20;2.10;;;1.65;;
54575;SDS011;40472;53.486;14.542;2022-12-13T08:32:48;4.10;;;1.88;;
54575;SDS011;40472;53.486;14.542;2022-12-13T08:35:14;7.15;;;3.40;;
54575;SDS011;40472;53.486;14.542;2022-12-13T08:37:40;2.75;;;1.92;;
54575;SDS011;40472;53.486;14.542;2022-12-13T08:40:07;4.07;;;1.98;;
54575;SDS011;40472;53.486;14.542;2022-12-13T08:42:33;4.60;;;2.08;;
54575;SDS011;40472;53.486;14.542;2022-12-13T08:44:59;2.05;;;1.50;;
54575;SDS011;40472;53.486;14.542;2022-12-13T08:47:25;5.65;;;4.10;;
54575;SDS011;40472;53.486;14.542;2022-12-13T08:49:54;3.53;;;2.85;;
54575;SDS011;40472;53.486;14.542;2022-12-13T08:52:26;15.23;;;1.77;;
54575;SDS011;40472;53.486;14.542;2022-12-13T08:54:52;2.58;;;1.90;;
54575;SDS011;40472;53.486;14.542;2022-12-13T08:57:18;3.22;;;2.38;;
54575;SDS011;40472;53.486;14.542;2022-12-13T08:59:43;3.28;;;1.83;;
54575;SDS011;40472;53.486;14.542;2022-12-13T09:02:12;3.28;;;1.75;;
54575;SDS011;40472;53.486;14.542;2022-12-13T09:04:38;2.70;;;1.75;;
54575;SDS011;40472;53.486;14.542;2022-12-13T09:07:05;4.13;;;2.67;;
54575;SDS011;40472;53.486;14.542;2022-12-13T09:09:30;3.17;;;1.92;;
54575;SDS011;40472;53.486;14.542;2022-12-13T09:11:56;2.50;;;1.35;;
54575;SDS011;40472;53.486;14.542;2022-12-13T09:14:22;3.03;;;1.98;;
54575;SDS011;40472;53.486;14.542;2022-12-13T09:16:47;2.28;;;1.15;;
54575;SDS011;40472;53.486;14.542;2022-12-13T09:19:13;3.75;;;2.28;;
54575;SDS011;40472;53.486;14.542;2022-12-13T09:21:39;5.68;;;1.85;;
54575;SDS011;40472;53.486;14.542;2022-12-13T09:24:05;4.03;;;1.98;;
54575;SDS011;40472;53.486;14.542;2022-12-13T09:26:31;2.88;;;2.40;;
54575;SDS011;40472;53.486;14.542;2022-12-13T09:28:56;6.18;;;1.83;;
54575;SDS011;40472;53.486;14.542;2022-12-13T09:31:22;5.70;;;1.55;;
54575;SDS011;40472;53.486;14.542;2022-12-13T09:33:49;3.40;;;2.22;;
54575;SDS011;40472;53.486;14.542;2022-12-13T09:36:16;5.95;;;3.25;;
54575;SDS011;40472;53.486;14.542;2022-12-13T09:38:47;1.38;;;1.20;;
54575;SDS011;40472;53.486;14.542;2022-12-13T09:41:18;6.97;;;3.45;;
54575;SDS011;40472;53.486;14.542;2022-12-13T09:44:06;4.70;;;2.15;;
54575;SDS011;40472;53.486;14.542;2022-12-13T09:46:46;5.70;;;2.72;;
54575;SDS011;40472;53.486;14.542;2022-12-13T09:49:33;3.65;;;2.28;;
54575;SDS011;40472;53.486;14.542;2022-12-13T09:52:02;3.25;;;1.90;;
54575;SDS011;40472;53.486;14.542;2022-12-13T09:54:30;5.75;;;1.38;;
54575;SDS011;40472;53.486;14.542;2022-12-13T09:56:57;2.28;;;1.98;;
54575;SDS011;40472;53.486;14.542;2022-12-13T09:59:30;2.40;;;1.48;;
54575;SDS011;40472;53.486;14.542;2022-12-13T10:04:37;1.23;;;0.90;;
54575;SDS011;40472;53.486;14.542;2022-12-13T10:07:10;3.50;;;2.00;;
54575;SDS011;40472;53.486;14.542;2022-12-13T10:09:42;3.30;;;1.80;;
54575;SDS011;40472;53.486;14.542;2022-12-13T10:12:09;2.17;;;1.65;;
54575;SDS011;40472;53.486;14.542;2022-12-13T10:14:39;3.53;;;1.90;;
54575;SDS011;40472;53.486;14.542;2022-12-13T10:17:13;2.53;;;1.55;;
54575;SDS011;40472;53.486;14.542;2022-12-13T10:19:46;3.35;;;1.63;;
54575;SDS011;40472;53.486;14.542;2022-12-13T10:22:19;3.72;;;1.80;;
54575;SDS011;40472;53.486;14.542;2022-12-13T10:27:20;3.47;;;2.00;;
54575;SDS011;40472;53.486;14.542;2022-12-13T10:35:32;4.70;;;2.20;;
54575;SDS011;40472;53.486;14.542;2022-12-13T10:38:01;3.70;;;1.88;;
54575;SDS011;40472;53.486;14.542;2022-12-13T10:40:34;1.20;;;0.90;;
54575;SDS011;40472;53.486;14.542;2022-12-13T10:43:04;4.30;;;2.30;;
54575;SDS011;40472;53.486;14.542;2022-12-13T10:45:36;4.38;;;2.38;;
54575;SDS011;40472;53.486;14.542;2022-12-13T10:48:16;4.63;;;1.73;;
54575;SDS011;40472;53.486;14.542;2022-12-13T10:53:31;4.18;;;2.00;;
54575;SDS011;40472;53.486;14.542;2022-12-13T10:56:00;3.47;;;2.13;;
54575;SDS011;40472;53.486;14.542;2022-12-13T10:58:41;4.05;;;2.20;;
54575;SDS011;40472;53.486;14.542;2022-12-13T11:03:36;8.45;;;3.65;;
54575;SDS011;40472;53.486;14.542;2022-12-13T11:06:03;4.20;;;1.70;;
54575;SDS011;40472;53.486;14.542;2022-12-13T11:08:38;3.05;;;1.58;;
54575;SDS011;40472;53.486;14.542;2022-12-13T11:11:05;7.05;;;2.00;;
54575;SDS011;40472;53.486;14.542;2022-12-13T11:16:03;4.90;;;2.33;;
54575;SDS011;40472;53.486;14.542;2022-12-13T11:18:39;2.70;;;2.17;;
54575;SDS011;40472;53.486;14.542;2022-12-13T11:21:05;5.82;;;2.47;;
54575;SDS011;40472;53.486;14.542;2022-12-13T11:23:33;5.93;;;2.25;;
54575;SDS011;40472;53.486;14.542;2022-12-13T11:26:08;5.05;;;2.53;;
54575;SDS011;40472;53.486;14.542;2022-12-13T11:31:41;3.55;;;2.08;;
54575;SDS011;40472;53.486;14.542;2022-12-13T11:39:39;3.10;;;2.50;;
54575;SDS011;40472;53.486;14.542;2022-12-13T11:42:20;5.13;;;2.03;;
54575;SDS011;40472;53.486;14.542;2022-12-13T11:47:46;1.77;;;1.63;;
54575;SDS011;40472;53.486;14.542;2022-12-13T11:50:21;3.45;;;2.22;;
54575;SDS011;40472;53.486;14.542;2022-12-13T11:52:53;5.38;;;1.77;;
54575;SDS011;40472;53.486;14.542;2022-12-13T12:00:45;3.67;;;1.63;;
54575;SDS011;40472;53.486;14.542;2022-12-13T12:03:18;5.93;;;2.72;;
54575;SDS011;40472;53.486;14.542;2022-12-13T12:05:56;8.45;;;2.53;;
54575;SDS011;40472;53.486;14.542;2022-12-13T12:08:37;3.00;;;1.50;;
54575;SDS011;40472;53.486;14.542;2022-12-13T12:14:08;6.07;;;2.80;;
54575;SDS011;40472;53.486;14.542;2022-12-13T12:16:52;6.35;;;3.25;;
54575;SDS011;40472;53.486;14.542;2022-12-13T12:19:21;12.43;;;2.55;;
54575;SDS011;40472;53.486;14.542;2022-12-13T12:27:36;1.77;;;1.13;;
54575;SDS011;40472;53.486;14.542;2022-12-13T12:41:23;7.68;;;2.25;;
54575;SDS011;40472;53.486;14.542;2022-12-13T13:03:35;2.85;;;1.52;;
54575;SDS011;40472;53.486;14.542;2022-12-13T13:06:10;5.13;;;2.22;;
54575;SDS011;40472;53.486;14.542;2022-12-13T13:11:21;4.32;;;1.65;;
54575;SDS011;40472;53.486;14.542;2022-12-13T13:16:40;0.87;;;0.83;;
54575;SDS011;40472;53.486;14.542;2022-12-13T13:21:50;1.63;;;1.02;;
54575;SDS011;40472;53.486;14.542;2022-12-13T13:26:53;3.28;;;1.63;;
54575;SDS011;40472;53.486;14.542;2022-12-13T13:31:57;2.00;;;1.40;;
54575;SDS011;40472;53.486;14.542;2022-12-13T13:35:44;3.55;;;1.60;;
54575;SDS011;40472;53.486;14.542;2022-12-13T13:37:55;5.65;;;1.55;;
54575;SDS011;40472;53.486;14.542;2022-12-13T13:46:08;1.40;;;1.10;;
54575;SDS011;40472;53.486;14.542;2022-12-13T14:02:49;3.83;;;2.38;;
54575;SDS011;40472;53.486;14.542;2022-12-13T14:08:16;6.07;;;2.33;;
54575;SDS011;40472;53.486;14.542;2022-12-13T14:11:14;4.15;;;1.65;;
54575;SDS011;40472;53.486;14.542;2022-12-13T14:29:50;8.05;;;4.80;;
54575;SDS011;40472;53.486;14.542;2022-12-13T14:32:21;3.00;;;1.70;;
54575;SDS011;40472;53.486;14.542;2022-12-13T14:34:51;4.10;;;2.70;;
54575;SDS011;40472;53.486;14.542;2022-12-13T14:40:00;7.82;;;3.60;;
54575;SDS011;40472;53.486;14.542;2022-12-13T14:42:46;10.68;;;4.68;;
54575;SDS011;40472;53.486;14.542;2022-12-13T14:45:23;7.53;;;4.25;;
54575;SDS011;40472;53.486;14.542;2022-12-13T14:47:56;8.50;;;3.95;;
54575;SDS011;40472;53.486;14.542;2022-12-13T14:50:25;9.57;;;4.32;;
54575;SDS011;40472;53.486;14.542;2022-12-13T14:52:52;9.38;;;4.68;;
54575;SDS011;40472;53.486;14.542;2022-12-13T14:55:27;14.73;;;5.50;;
54575;SDS011;40472;53.486;14.542;2022-12-13T14:57:56;9.77;;;5.55;;
54575;SDS011;40472;53.486;14.542;2022-12-13T15:00:25;14.75;;;4.90;;
54575;SDS011;40472;53.486;14.542;2022-12-13T15:02:55;14.15;;;5.90;;
54575;SDS011;40472;53.486;14.542;2022-12-13T15:05:27;9.93;;;4.53;;
54575;SDS011;40472;53.486;14.542;2022-12-13T15:07:58;11.57;;;5.28;;
54575;SDS011;40472;53.486;14.542;2022-12-13T15:10:27;12.23;;;4.25;;
54575;SDS011;40472;53.486;14.542;2022-12-13T15:13:05;13.48;;;4.80;;
54575;SDS011;40472;53.486;14.542;2022-12-13T15:20:42;22.75;;;8.20;;
54575;SDS011;40472;53.486;14.542;2022-12-13T15:28:49;14.52;;;5.70;;
54575;SDS011;40472;53.486;14.542;2022-12-13T15:31:19;13.27;;;6.07;;
54575;SDS011;40472;53.486;14.542;2022-12-13T15:33:45;14.80;;;7.40;;
54575;SDS011;40472;53.486;14.542;2022-12-13T15:41:21;22.92;;;6.55;;
54575;SDS011;40472;53.486;14.542;2022-12-13T15:44:02;18.40;;;6.53;;
54575;SDS011;40472;53.486;14.542;2022-12-13T15:46:32;15.88;;;6.15;;
54575;SDS011;40472;53.486;14.542;2022-12-13T15:49:04;6.82;;;4.75;;
54575;SDS011;40472;53.486;14.542;2022-12-13T15:52:23;18.75;;;6.07;;
54575;SDS011;40472;53.486;14.542;2022-12-13T15:54:32;15.23;;;7.25;;
54575;SDS011;40472;53.486;14.542;2022-12-13T15:57:14;19.42;;;8.45;;
54575;SDS011;40472;53.486;14.542;2022-12-13T15:59:46;19.73;;;8.43;;
54575;SDS011;40472;53.486;14.542;2022-12-13T16:02:22;19.75;;;8.43;;
54575;SDS011;40472;53.486;14.542;2022-12-13T16:04:49;25.80;;;11.13;;
54575;SDS011;40472;53.486;14.542;2022-12-13T16:07:31;33.25;;;12.05;;
54575;SDS011;40472;53.486;14.542;2022-12-13T16:10:05;28.90;;;11.73;;
54575;SDS011;40472;53.486;14.542;2022-12-13T16:15:23;20.25;;;8.98;;
54575;SDS011;40472;53.486;14.542;2022-12-13T16:17:54;16.17;;;7.50;;
54575;SDS011;40472;53.486;14.542;2022-12-13T16:20:30;15.50;;;7.35;;
54575;SDS011;40472;53.486;14.542;2022-12-13T16:22:56;22.25;;;10.30;;
54575;SDS011;40472;53.486;14.542;2022-12-13T16:25:22;26.70;;;10.18;;
54575;SDS011;40472;53.486;14.542;2022-12-13T16:27:48;25.63;;;11.90;;
54575;SDS011;40472;53.486;14.542;2022-12-13T16:30:26;21.70;;;9.13;;
54575;SDS011;40472;53.486;14.542;2022-12-13T16:33:12;22.98;;;9.68;;
54575;SDS011;40472;53.486;14.542;2022-12-13T16:35:38;19.98;;;8.75;;
54575;SDS011;40472;53.486;14.542;2022-12-13T16:38:04;21.50;;;8.38;;
54575;SDS011;40472;53.486;14.542;2022-12-13T16:40:29;4.95;;;3.30;;
54575;SDS011;40472;53.486;14.542;2022-12-13T16:43:01;21.20;;;9.30;;
54575;SDS011;40472;53.486;14.542;2022-12-13T16:45:33;24.27;;;10.73;;
54575;SDS011;40472;53.486;14.542;2022-12-13T16:48:07;13.68;;;6.30;;
54575;SDS011;40472;53.486;14.542;2022-12-13T16:50:42;12.63;;;7.22;;
54575;SDS011;40472;53.486;14.542;2022-12-13T16:53:09;22.63;;;9.23;;
54575;SDS011;40472;53.486;14.542;2022-12-13T16:55:35;25.85;;;11.10;;
54575;SDS011;40472;53.486;14.542;2022-12-13T16:58:05;24.88;;;12.10;;
54575;SDS011;40472;53.486;14.542;2022-12-13T17:00:35;27.58;;;10.50;;
54575;SDS011;40472;53.486;14.542;2022-12-13T17:03:04;22.42;;;9.75;;
54575;SDS011;40472;53.486;14.542;2022-12-13T17:05:33;19.85;;;7.75;;
54575;SDS011;40472;53.486;14.542;2022-12-13T17:08:13;28.17;;;10.55;;
54575;SDS011;40472;53.486;14.542;2022-12-13T17:10:40;16.10;;;7.95;;
54575;SDS011;40472;53.486;14.542;2022-12-13T17:13:07;14.60;;;7.68;;
54575;SDS011;40472;53.486;14.542;2022-12-13T17:15:34;26.15;;;10.90;;
54575;SDS011;40472;53.486;14.542;2022-12-13T17:18:01;14.38;;;6.05;;
54575;SDS011;40472;53.486;14.542;2022-12-13T17:20:27;11.95;;;6.20;;
54575;SDS011;40472;53.486;14.542;2022-12-13T17:22:55;15.60;;;6.00;;
54575;SDS011;40472;53.486;14.542;2022-12-13T17:25:21;5.60;;;2.72;;
54575;SDS011;40472;53.486;14.542;2022-12-13T17:27:48;20.63;;;9.05;;
54575;SDS011;40472;53.486;14.542;2022-12-13T17:30:14;21.88;;;10.65;;
54575;SDS011;40472;53.486;14.542;2022-12-13T17:32:42;19.60;;;8.23;;
54575;SDS011;40472;53.486;14.542;2022-12-13T17:35:08;15.25;;;5.97;;
54575;SDS011;40472;53.486;14.542;2022-12-13T17:37:35;20.63;;;8.65;;
54575;SDS011;40472;53.486;14.542;2022-12-13T17:40:01;30.63;;;11.27;;
54575;SDS011;40472;53.486;14.542;2022-12-13T17:42:27;30.42;;;10.93;;
54575;SDS011;40472;53.486;14.542;2022-12-13T17:44:52;31.73;;;12.55;;